createdAt,value
2022-11-04T00:00:53.947Z,9.66
2022-11-04T00:01:54.793Z,9.65
2022-11-04T00:02:54.982Z,9.64
2022-11-04T00:03:53.798Z,9.63
2022-11-04T00:04:53.901Z,9.63
2022-11-04T00:05:53.783Z,9.62
2022-11-04T00:06:53.758Z,9.62
2022-11-04T00:07:54.976Z,9.61
2022-11-04T00:08:53.738Z,9.61
2022-11-04T00:09:53.684Z,9.60
2022-11-04T00:10:53.710Z,9.59
2022-11-04T00:11:53.746Z,9.58
2022-11-04T00:12:54.743Z,9.58
2022-11-04T00:13:53.681Z,9.58
2022-11-04T00:14:53.956Z,9.57
2022-11-04T00:15:53.628Z,9.57
2022-11-04T00:16:53.627Z,9.57
2022-11-04T00:17:54.679Z,9.57
2022-11-04T00:18:53.720Z,9.57
2022-11-04T00:19:53.623Z,9.57
2022-11-04T00:20:53.590Z,9.57
2022-11-04T00:21:53.617Z,9.57
2022-11-04T00:22:53.704Z,9.56
2022-11-04T00:23:54.538Z,9.56
2022-11-04T00:24:53.830Z,9.56
2022-11-04T00:25:53.524Z,9.56
2022-11-04T00:26:53.535Z,9.56
2022-11-04T00:27:53.541Z,9.56
2022-11-04T00:28:53.554Z,9.55
2022-11-04T00:29:54.454Z,9.55
2022-11-04T00:30:53.436Z,9.54
2022-11-04T00:31:53.870Z,9.54
2022-11-04T00:32:53.477Z,9.54
2022-11-04T00:33:53.811Z,9.53
2022-11-04T00:34:54.310Z,9.53
2022-11-04T00:35:54.974Z,9.53
2022-11-04T00:36:53.381Z,9.52
2022-11-04T00:37:53.386Z,9.52
2022-11-04T00:38:54.499Z,9.51
2022-11-04T00:39:54.425Z,9.51
2022-11-04T00:40:53.327Z,9.50
2022-11-04T00:41:53.335Z,9.50
2022-11-04T00:42:53.343Z,9.50
2022-11-04T00:43:53.358Z,9.49
2022-11-04T00:44:54.218Z,9.49
2022-11-04T00:45:53.297Z,9.49
2022-11-04T00:46:53.266Z,9.49
2022-11-04T00:47:53.217Z,9.48
2022-11-04T00:48:53.275Z,9.48
2022-11-04T00:49:53.272Z,9.47
2022-11-04T00:50:55.113Z,9.46
2022-11-04T00:51:53.219Z,9.45
2022-11-04T00:52:53.218Z,9.44
2022-11-04T00:53:53.211Z,9.43
2022-11-04T00:54:53.233Z,9.42
2022-11-04T00:55:54.095Z,9.40
2022-11-04T00:56:53.453Z,9.39
2022-11-04T00:57:53.153Z,9.38
2022-11-04T00:58:53.165Z,9.37
2022-11-04T00:59:53.376Z,9.35
2022-11-04T01:00:59.440Z,9.34
2022-11-04T01:01:53.214Z,9.32
2022-11-04T01:02:53.052Z,9.31
2022-11-04T01:03:53.075Z,9.30
2022-11-04T01:04:53.072Z,9.29
2022-11-04T01:05:52.991Z,9.27
2022-11-04T01:06:53.935Z,9.26
2022-11-04T01:07:53.077Z,9.26
2022-11-04T01:08:52.946Z,9.25
2022-11-04T01:09:52.942Z,9.24
2022-11-04T01:10:52.930Z,9.23
2022-11-04T01:11:52.921Z,9.22
2022-11-04T01:12:54.953Z,9.21
2022-11-04T01:13:52.918Z,9.21
2022-11-04T01:14:54.157Z,9.20
2022-11-04T01:15:52.869Z,9.19
2022-11-04T01:16:52.935Z,9.18
2022-11-04T01:17:53.897Z,9.18
2022-11-04T01:18:52.868Z,9.17
2022-11-04T01:19:53.043Z,9.17
2022-11-04T01:20:52.823Z,9.16
2022-11-04T01:21:53.948Z,9.16
2022-11-04T01:22:53.712Z,9.15
2022-11-04T01:23:52.821Z,9.15
2022-11-04T01:24:52.822Z,9.14
2022-11-04T01:25:52.735Z,9.14
2022-11-04T01:26:52.800Z,9.13
2022-11-04T01:27:53.693Z,9.12
2022-11-04T01:28:52.753Z,9.12
2022-11-04T01:29:53.055Z,9.11
2022-11-04T01:30:52.708Z,9.11
2022-11-04T01:31:52.673Z,9.11
2022-11-04T01:32:53.600Z,9.11
2022-11-04T01:33:53.913Z,9.11
2022-11-04T01:34:52.626Z,9.11
2022-11-04T01:35:52.652Z,9.11
2022-11-04T01:36:52.636Z,9.11
2022-11-04T01:37:52.587Z,9.11
2022-11-04T01:38:53.555Z,9.11
2022-11-04T01:39:52.562Z,9.11
2022-11-04T01:40:52.567Z,9.11
2022-11-04T01:41:52.729Z,9.11
2022-11-04T01:42:52.628Z,9.12
2022-11-04T01:43:52.585Z,9.11
2022-11-04T01:44:54.509Z,9.12
2022-11-04T01:45:52.519Z,9.12
2022-11-04T01:46:53.572Z,9.12
2022-11-04T01:47:52.762Z,9.12
2022-11-04T01:49:13.483Z,9.13
2022-11-04T01:49:53.425Z,9.13
2022-11-04T01:50:52.523Z,9.14
2022-11-04T01:51:53.412Z,9.15
2022-11-04T01:52:52.494Z,9.16
2022-11-04T01:53:52.505Z,9.16
2022-11-04T01:54:52.402Z,9.16
2022-11-04T01:55:54.191Z,9.17
2022-11-04T01:56:53.551Z,9.17
2022-11-04T01:57:52.354Z,9.17
2022-11-04T01:58:52.354Z,9.17
2022-11-04T01:59:52.331Z,9.18
2022-11-04T02:00:53.292Z,9.18
2022-11-04T02:01:52.407Z,9.18
2022-11-04T02:02:53.187Z,9.19
2022-11-04T02:03:52.385Z,9.20
2022-11-04T02:04:52.225Z,9.21
2022-11-04T02:05:52.285Z,9.22
2022-11-04T02:06:53.207Z,9.23
2022-11-04T02:07:52.392Z,9.24
2022-11-04T02:08:52.253Z,9.25
2022-11-04T02:09:52.455Z,9.26
2022-11-04T02:10:52.289Z,9.27
2022-11-04T02:11:53.134Z,9.28
2022-11-04T02:12:52.158Z,9.29
2022-11-04T02:13:52.145Z,9.30
2022-11-04T02:14:52.114Z,9.30
2022-11-04T02:15:52.360Z,9.30
2022-11-04T02:16:53.015Z,9.30
2022-11-04T02:17:52.105Z,9.30
2022-11-04T02:18:52.158Z,9.30
2022-11-04T02:19:52.243Z,9.30
2022-11-04T02:20:54.055Z,9.29
2022-11-04T02:21:53.007Z,9.28
2022-11-04T02:22:52.333Z,9.28
2022-11-04T02:23:53.068Z,9.27
2022-11-04T02:24:52.047Z,9.27
2022-11-04T02:25:53.136Z,9.27
2022-11-04T02:26:52.948Z,9.27
2022-11-04T02:27:52.010Z,9.26
2022-11-04T02:28:51.949Z,9.26
2022-11-04T02:29:52.474Z,9.26
2022-11-04T02:30:51.987Z,9.25
2022-11-04T02:31:52.274Z,9.25
2022-11-04T02:32:52.912Z,9.24
2022-11-04T02:33:52.000Z,9.24
2022-11-04T02:34:51.903Z,9.23
2022-11-04T02:35:51.851Z,9.23
2022-11-04T02:36:52.833Z,9.22
2022-11-04T02:38:52.826Z,9.22
2022-11-04T02:39:51.939Z,9.21
2022-11-04T02:40:52.003Z,9.21
2022-11-04T02:41:52.368Z,9.20
2022-11-04T02:42:52.523Z,9.20
2022-11-04T02:43:51.813Z,9.19
2022-11-04T02:44:52.785Z,9.19
2022-11-04T02:45:51.805Z,9.18
2022-11-04T02:46:52.797Z,9.18
2022-11-04T02:47:51.824Z,9.17
2022-11-04T02:48:51.734Z,9.16
2022-11-04T02:49:51.640Z,9.15
2022-11-04T02:50:52.643Z,9.14
2022-11-04T02:51:51.703Z,9.14
2022-11-04T02:52:51.694Z,9.13
2022-11-04T02:53:51.717Z,9.12
2022-11-04T02:54:52.861Z,9.12
2022-11-04T02:55:52.606Z,9.11
2022-11-04T02:56:51.694Z,9.11
2022-11-04T02:57:51.628Z,9.10
2022-11-04T02:58:52.727Z,9.10
2022-11-04T02:59:51.521Z,9.09
2022-11-04T03:00:53.511Z,9.09
2022-11-04T03:01:52.740Z,9.08
2022-11-04T03:02:51.558Z,9.08
2022-11-04T03:03:51.528Z,9.08
2022-11-04T03:04:51.495Z,9.07
2022-11-04T03:05:51.449Z,9.07
2022-11-04T03:06:53.367Z,9.07
2022-11-04T03:07:51.488Z,9.08
2022-11-04T03:08:51.496Z,9.08
2022-11-04T03:09:51.586Z,9.08
2022-11-04T03:10:51.402Z,9.08
2022-11-04T03:11:52.337Z,9.08
2022-11-04T03:12:51.445Z,9.08
2022-11-04T03:13:51.750Z,9.08
2022-11-04T03:14:51.286Z,9.08
2022-11-04T03:15:51.289Z,9.08
2022-11-04T03:16:52.349Z,9.07
2022-11-04T03:17:51.267Z,9.07
2022-11-04T03:18:51.415Z,9.07
2022-11-04T03:19:51.254Z,9.07
2022-11-04T03:20:51.655Z,9.07
2022-11-04T03:21:51.672Z,9.08
2022-11-04T03:22:53.208Z,9.08
2022-11-04T03:23:51.388Z,9.09
2022-11-04T03:24:51.681Z,9.10
2022-11-04T03:25:51.294Z,9.11
2022-11-04T03:26:51.153Z,9.12
2022-11-04T03:27:53.086Z,9.14
2022-11-04T03:28:52.577Z,9.15
2022-11-04T03:29:51.151Z,9.16
2022-11-04T03:30:51.559Z,9.17
2022-11-04T03:31:52.082Z,9.18
2022-11-04T03:32:51.081Z,9.18
2022-11-04T03:33:52.093Z,9.19
2022-11-04T03:34:51.064Z,9.20
2022-11-04T03:35:51.076Z,9.21
2022-11-04T03:36:52.023Z,9.22
2022-11-04T03:37:51.007Z,9.23
2022-11-04T03:38:51.044Z,9.24
2022-11-04T03:39:52.037Z,9.25
2022-11-04T03:40:51.209Z,9.26
2022-11-04T03:41:50.999Z,9.27
2022-11-04T03:42:51.004Z,9.29
2022-11-04T03:43:51.344Z,9.30
2022-11-04T03:44:51.939Z,9.31
2022-11-04T03:45:51.046Z,9.33
2022-11-04T03:46:50.921Z,9.34
2022-11-04T03:47:50.927Z,9.35
2022-11-04T03:48:50.957Z,9.36
2022-11-04T03:49:50.922Z,9.37
2022-11-04T03:50:52.099Z,9.38
2022-11-04T03:51:50.854Z,9.38
2022-11-04T03:52:50.821Z,9.39
2022-11-04T03:53:51.852Z,9.39
2022-11-04T03:54:51.733Z,9.39
2022-11-04T03:55:51.826Z,9.39
2022-11-04T03:56:50.853Z,9.39
2022-11-04T03:57:50.767Z,9.39
2022-11-04T03:58:50.790Z,9.39
2022-11-04T03:59:50.767Z,9.38
2022-11-04T04:00:50.815Z,9.38
2022-11-04T04:01:51.723Z,9.37
2022-11-04T04:02:50.637Z,9.37
2022-11-04T04:03:51.651Z,9.38
2022-11-04T04:04:51.696Z,9.38
2022-11-04T04:05:50.774Z,9.38
2022-11-04T04:06:50.671Z,9.39
2022-11-04T04:07:51.616Z,9.40
2022-11-04T04:08:50.670Z,9.41
2022-11-04T04:09:50.592Z,9.42
2022-11-04T04:10:50.581Z,9.43
2022-11-04T04:11:50.552Z,9.44
2022-11-04T04:12:50.704Z,9.45
2022-11-04T04:13:51.522Z,9.46
2022-11-04T04:14:50.540Z,9.47
2022-11-04T04:15:50.535Z,9.48
2022-11-04T04:16:50.467Z,9.48
2022-11-04T04:17:51.628Z,9.49
2022-11-04T04:18:55.682Z,9.50
2022-11-04T04:19:52.062Z,9.51
2022-11-04T04:20:50.445Z,9.52
2022-11-04T04:21:51.593Z,9.53
2022-11-04T04:22:50.766Z,9.53
2022-11-04T04:23:50.456Z,9.54
2022-11-04T04:24:52.653Z,9.54
2022-11-04T04:25:50.495Z,9.55
2022-11-04T04:26:50.516Z,9.55
2022-11-04T04:27:50.324Z,9.56
2022-11-04T04:28:50.752Z,9.56
2022-11-04T04:29:51.136Z,9.57
2022-11-04T04:30:53.272Z,9.57
2022-11-04T04:31:50.399Z,9.58
2022-11-04T04:32:51.347Z,9.58
2022-11-04T04:33:50.333Z,9.59
2022-11-04T04:34:50.274Z,9.59
2022-11-04T04:35:51.366Z,9.59
2022-11-04T04:36:51.176Z,9.59
2022-11-04T04:37:50.221Z,9.60
2022-11-04T04:38:50.322Z,9.60
2022-11-04T04:39:50.226Z,9.60
2022-11-04T04:40:50.616Z,9.60
2022-11-04T04:41:50.220Z,9.60
2022-11-04T04:42:51.130Z,9.60
2022-11-04T04:43:50.253Z,9.61
2022-11-04T04:44:50.112Z,9.61
2022-11-04T04:45:50.134Z,9.62
2022-11-04T04:46:50.103Z,9.62
2022-11-04T04:47:51.033Z,9.62
2022-11-04T04:48:50.103Z,9.63
2022-11-04T04:49:50.029Z,9.63
2022-11-04T04:50:50.073Z,9.64
2022-11-04T04:51:50.100Z,9.64
2022-11-04T04:52:50.933Z,9.65
2022-11-04T04:53:50.054Z,9.66
2022-11-04T04:54:51.021Z,9.66
2022-11-04T04:55:49.972Z,9.67
2022-11-04T04:56:50.043Z,9.67
2022-11-04T04:57:51.140Z,9.68
2022-11-04T04:58:51.398Z,9.68
2022-11-04T04:59:49.901Z,9.69
2022-11-04T05:00:49.990Z,9.69
2022-11-04T05:01:49.972Z,9.70
2022-11-04T05:02:50.840Z,9.70
2022-11-04T05:03:49.884Z,9.71
2022-11-04T05:04:49.897Z,9.71
2022-11-04T05:05:51.701Z,9.72
2022-11-04T05:06:56.202Z,9.72
2022-11-04T05:07:56.221Z,9.73
2022-11-04T05:08:50.860Z,9.73
2022-11-04T05:09:49.827Z,9.73
2022-11-04T05:10:49.782Z,9.74
2022-11-04T05:11:49.887Z,9.74
2022-11-04T05:12:50.739Z,9.74
2022-11-04T05:13:49.873Z,9.75
2022-11-04T05:14:49.723Z,9.75
2022-11-04T05:15:49.747Z,9.76
2022-11-04T05:16:49.661Z,9.77
2022-11-04T05:17:50.761Z,9.77
2022-11-04T05:18:49.728Z,9.78
2022-11-04T05:19:49.699Z,9.79
2022-11-04T05:20:49.684Z,9.79
2022-11-04T05:21:49.647Z,9.80
2022-11-04T05:22:51.567Z,9.81
2022-11-04T05:23:49.665Z,9.81
2022-11-04T05:24:49.605Z,9.82
2022-11-04T05:25:49.701Z,9.83
2022-11-04T05:26:50.751Z,9.83
2022-11-04T05:27:49.785Z,9.84
2022-11-04T05:28:50.861Z,9.84
2022-11-04T05:29:49.572Z,9.85
2022-11-04T05:30:52.628Z,9.85
2022-11-04T05:31:49.865Z,9.85
2022-11-04T05:32:49.595Z,9.85
2022-11-04T05:33:51.280Z,9.85
2022-11-04T05:34:50.459Z,9.85
2022-11-04T05:35:49.913Z,9.85
2022-11-04T05:36:50.581Z,9.86
2022-11-04T05:37:50.648Z,9.87
2022-11-04T05:39:11.590Z,9.87
2022-11-04T05:39:49.691Z,9.88
2022-11-04T05:40:50.458Z,9.89
2022-11-04T05:41:50.699Z,9.90
2022-11-04T05:42:51.392Z,9.91
2022-11-04T05:43:50.469Z,9.92
2022-11-04T05:44:49.479Z,9.93
2022-11-04T05:45:50.424Z,9.93
2022-11-04T05:46:50.550Z,9.94
2022-11-04T05:47:50.460Z,9.94
2022-11-04T05:48:49.341Z,9.94
2022-11-04T05:49:49.243Z,9.94
2022-11-04T05:50:50.275Z,9.94
2022-11-04T05:51:49.261Z,9.94
2022-11-04T05:52:49.347Z,9.94
2022-11-04T05:53:49.218Z,9.94
2022-11-04T05:54:50.298Z,9.94
2022-11-04T05:55:50.143Z,9.94
2022-11-04T05:56:49.293Z,9.94
2022-11-04T05:57:49.243Z,9.94
2022-11-04T05:58:54.193Z,9.93
2022-11-04T05:59:49.362Z,9.93
2022-11-04T06:00:49.330Z,9.93
2022-11-04T06:01:51.497Z,9.92
2022-11-04T06:02:49.304Z,9.92
2022-11-04T06:03:49.647Z,9.92
2022-11-04T06:04:50.248Z,9.91
2022-11-04T06:05:50.263Z,9.91
2022-11-04T06:06:50.404Z,9.91
2022-11-04T06:07:51.000Z,9.91
2022-11-04T06:08:56.010Z,9.91
2022-11-04T06:09:49.757Z,9.91
2022-11-04T06:10:49.287Z,9.91
2022-11-04T06:11:50.143Z,9.91
2022-11-04T06:12:51.277Z,9.91
2022-11-04T06:13:49.255Z,9.91
2022-11-04T06:14:49.992Z,9.91
2022-11-04T06:15:49.407Z,9.91
2022-11-04T06:16:49.332Z,9.91
2022-11-04T06:17:55.509Z,9.91
2022-11-04T06:18:50.932Z,9.91
2022-11-04T06:19:50.353Z,9.91
2022-11-04T06:20:49.894Z,9.91
2022-11-04T06:21:50.786Z,9.92
2022-11-04T06:22:49.407Z,9.92
2022-11-04T06:23:51.052Z,9.93
2022-11-04T06:24:49.815Z,9.94
2022-11-04T06:25:48.874Z,9.95
2022-11-04T06:26:50.172Z,9.96
2022-11-04T06:27:50.921Z,9.97
2022-11-04T06:28:50.792Z,9.98
2022-11-04T06:29:51.018Z,9.99
2022-11-04T06:30:49.582Z,10.00
2022-11-04T06:31:49.860Z,10.01
2022-11-04T06:32:50.051Z,10.02
2022-11-04T06:33:50.759Z,10.02
2022-11-04T06:34:56.420Z,10.03
2022-11-04T06:35:49.135Z,10.03
2022-11-04T06:36:48.916Z,10.04
2022-11-04T06:37:49.887Z,10.04
2022-11-04T06:38:49.029Z,10.05
2022-11-04T06:39:51.779Z,10.06
2022-11-04T06:40:48.721Z,10.07
2022-11-04T06:41:51.515Z,10.08
2022-11-04T06:42:48.885Z,10.10
2022-11-04T06:43:50.170Z,10.11
2022-11-04T06:44:49.022Z,10.12
2022-11-04T06:45:49.822Z,10.13
2022-11-04T06:46:49.608Z,10.15
2022-11-04T06:47:50.206Z,10.16
2022-11-04T06:48:50.716Z,10.18
2022-11-04T06:49:48.801Z,10.19
2022-11-04T06:50:54.918Z,10.21
2022-11-04T06:51:49.293Z,10.22
2022-11-04T06:52:48.530Z,10.23
2022-11-04T06:53:48.438Z,10.25
2022-11-04T06:54:48.565Z,10.27
2022-11-04T06:55:49.429Z,10.29
2022-11-04T06:56:48.540Z,10.30
2022-11-04T06:57:48.496Z,10.32
2022-11-04T06:58:48.536Z,10.34
2022-11-04T06:59:48.484Z,10.36
2022-11-04T07:00:54.806Z,10.37
2022-11-04T07:01:48.662Z,10.39
2022-11-04T07:02:48.461Z,10.41
2022-11-04T07:03:48.447Z,10.43
2022-11-04T07:04:48.379Z,10.45
2022-11-04T07:05:49.293Z,10.47
2022-11-04T07:06:48.345Z,10.48
2022-11-04T07:07:48.317Z,10.50
2022-11-04T07:08:48.425Z,10.52
2022-11-04T07:09:48.499Z,10.53
2022-11-04T07:10:48.347Z,10.55
2022-11-04T07:11:54.698Z,10.56
2022-11-04T07:12:48.360Z,10.57
2022-11-04T07:13:48.280Z,10.58
2022-11-04T07:14:48.203Z,10.59
2022-11-04T07:15:48.224Z,10.59
2022-11-04T07:16:49.094Z,10.60
2022-11-04T07:17:49.364Z,10.61
2022-11-04T07:18:48.163Z,10.62
2022-11-04T07:19:48.168Z,10.63
2022-11-04T07:20:48.096Z,10.63
2022-11-04T07:21:49.053Z,10.63
2022-11-04T07:22:49.036Z,10.63
2022-11-04T07:23:48.143Z,10.63
2022-11-04T07:24:48.369Z,10.62
2022-11-04T07:25:48.475Z,10.62
2022-11-04T07:26:48.150Z,10.61
2022-11-04T07:27:49.077Z,10.60
2022-11-04T07:28:48.078Z,10.59
2022-11-04T07:29:48.082Z,10.58
2022-11-04T07:30:48.099Z,10.57
2022-11-04T07:31:48.000Z,10.56
2022-11-04T07:32:48.032Z,10.54
2022-11-04T07:33:49.144Z,10.53
2022-11-04T07:34:48.117Z,10.52
2022-11-04T07:35:48.205Z,10.52
2022-11-04T07:36:47.976Z,10.52
2022-11-04T07:37:48.049Z,10.52
2022-11-04T07:38:48.122Z,10.52
2022-11-04T07:39:48.886Z,10.53
2022-11-04T07:40:47.980Z,10.55
2022-11-04T07:41:47.911Z,10.57
2022-11-04T07:42:47.920Z,10.59
2022-11-04T07:43:48.298Z,10.63
2022-11-04T07:44:47.937Z,10.66
2022-11-04T07:45:48.910Z,10.69
2022-11-04T07:46:48.459Z,10.73
2022-11-04T07:47:47.920Z,10.77
2022-11-04T07:48:47.984Z,10.81
2022-11-04T07:49:47.946Z,10.85
2022-11-04T07:50:54.175Z,10.91
2022-11-04T07:51:47.752Z,10.96
2022-11-04T07:52:50.112Z,11.01
2022-11-04T07:53:48.530Z,11.07
2022-11-04T07:54:48.851Z,11.13
2022-11-04T07:55:48.858Z,11.20
2022-11-04T07:56:47.745Z,11.28
2022-11-04T07:57:48.164Z,11.36
2022-11-04T07:58:47.913Z,11.44
2022-11-04T07:59:48.093Z,11.51
2022-11-04T08:00:48.661Z,11.58
2022-11-04T08:01:48.206Z,11.64
2022-11-04T08:02:47.613Z,11.68
2022-11-04T08:03:47.535Z,11.70
2022-11-04T08:04:47.574Z,11.72
2022-11-04T08:05:48.456Z,11.73
2022-11-04T08:06:55.216Z,11.73
2022-11-04T08:07:47.590Z,11.72
2022-11-04T08:08:47.675Z,11.71
2022-11-04T08:09:47.874Z,11.70
2022-11-04T08:10:48.943Z,11.69
2022-11-04T08:11:47.867Z,11.69
2022-11-04T08:12:48.517Z,11.69
2022-11-04T08:13:47.947Z,11.70
2022-11-04T08:14:47.614Z,11.70
2022-11-04T08:15:48.610Z,11.69
2022-11-04T08:16:49.569Z,11.69
2022-11-04T08:17:49.267Z,11.67
2022-11-04T08:18:47.680Z,11.65
2022-11-04T08:19:47.535Z,11.62
2022-11-04T08:20:47.543Z,11.60
2022-11-04T08:21:48.151Z,11.58
2022-11-04T08:22:47.479Z,11.57
2022-11-04T08:23:48.484Z,11.57
2022-11-04T08:24:47.494Z,11.58
2022-11-04T08:25:47.396Z,11.58
2022-11-04T08:26:48.305Z,11.58
2022-11-04T08:27:47.402Z,11.58
2022-11-04T08:28:47.663Z,11.58
2022-11-04T08:29:48.288Z,11.58
2022-11-04T08:30:48.436Z,11.58
2022-11-04T08:31:47.437Z,11.59
2022-11-04T08:32:53.513Z,11.61
2022-11-04T08:33:47.408Z,11.63
2022-11-04T08:34:48.450Z,11.64
2022-11-04T08:35:49.722Z,11.66
2022-11-04T08:36:48.005Z,11.68
2022-11-04T08:37:47.453Z,11.68
2022-11-04T08:38:47.267Z,11.69
2022-11-04T08:39:53.556Z,11.68
2022-11-04T08:40:49.113Z,11.68
2022-11-04T08:41:48.231Z,11.67
2022-11-04T08:42:47.363Z,11.67
2022-11-04T08:43:48.464Z,11.66
2022-11-04T08:44:47.387Z,11.67
2022-11-04T08:45:48.132Z,11.69
2022-11-04T08:46:48.152Z,11.73
2022-11-04T08:47:47.149Z,11.77
2022-11-04T08:48:47.263Z,11.82
2022-11-04T08:49:47.449Z,11.89
2022-11-04T08:50:47.486Z,11.97
2022-11-04T08:51:53.371Z,12.05
2022-11-04T08:52:47.049Z,12.14
2022-11-04T08:53:47.327Z,12.20
2022-11-04T08:54:47.018Z,12.25
2022-11-04T08:55:48.008Z,12.28
2022-11-04T08:56:47.182Z,12.29
2022-11-04T08:57:48.061Z,12.29
2022-11-04T08:58:46.946Z,12.27
2022-11-04T08:59:46.898Z,12.25
2022-11-04T09:00:46.899Z,12.23
2022-11-04T09:01:47.007Z,12.21
2022-11-04T09:02:47.884Z,12.20
2022-11-04T09:03:47.797Z,12.19
2022-11-04T09:04:46.937Z,12.18
2022-11-04T09:05:46.946Z,12.16
2022-11-04T09:06:46.928Z,12.14
2022-11-04T09:07:46.830Z,12.12
2022-11-04T09:08:47.693Z,12.09
2022-11-04T09:09:46.881Z,12.08
2022-11-04T09:10:47.414Z,12.07
2022-11-04T09:11:46.734Z,12.07
2022-11-04T09:12:47.723Z,12.07
2022-11-04T09:13:47.877Z,12.09
2022-11-04T09:14:46.842Z,12.11
2022-11-04T09:15:47.721Z,12.14
2022-11-04T09:16:46.773Z,12.17
2022-11-04T09:17:46.850Z,12.19
2022-11-04T09:18:47.030Z,12.21
2022-11-04T09:19:47.744Z,12.22
2022-11-04T09:20:46.970Z,12.23
2022-11-04T09:21:46.575Z,12.23
2022-11-04T09:22:46.849Z,12.23
2022-11-04T09:23:46.729Z,12.23
2022-11-04T09:25:08.611Z,12.24
2022-11-04T09:25:47.682Z,12.25
2022-11-04T09:26:46.838Z,12.28
2022-11-04T09:27:46.627Z,12.31
2022-11-04T09:28:46.688Z,12.34
2022-11-04T09:29:47.676Z,12.38
2022-11-04T09:30:47.515Z,12.41
2022-11-04T09:31:46.520Z,12.44
2022-11-04T09:32:51.464Z,12.46
2022-11-04T09:33:48.175Z,12.49
2022-11-04T09:34:46.525Z,12.51
2022-11-04T09:35:47.763Z,12.54
2022-11-04T09:36:47.458Z,12.56
2022-11-04T09:37:46.445Z,12.58
2022-11-04T09:38:46.564Z,12.61
2022-11-04T09:39:50.048Z,12.64
2022-11-04T09:40:48.023Z,12.67
2022-11-04T09:41:52.780Z,12.71
2022-11-04T09:42:47.319Z,12.75
2022-11-04T09:43:47.321Z,12.79
2022-11-04T09:45:15.060Z,12.83
2022-11-04T09:45:47.290Z,12.88
2022-11-04T09:46:47.420Z,12.92
2022-11-04T09:47:47.245Z,12.97
2022-11-04T09:48:46.359Z,13.00
2022-11-04T09:49:46.455Z,13.02
2022-11-04T09:50:47.470Z,13.04
2022-11-04T09:51:55.235Z,13.04
2022-11-04T09:52:48.964Z,13.04
2022-11-04T09:53:46.356Z,13.04
2022-11-04T09:54:47.631Z,13.04
2022-11-04T09:55:46.362Z,13.04
2022-11-04T09:56:46.486Z,13.05
2022-11-04T09:57:47.371Z,13.06
2022-11-04T09:58:48.150Z,13.08
2022-11-04T09:59:47.387Z,13.09
2022-11-04T10:00:48.469Z,13.10
2022-11-04T10:01:46.170Z,13.11
2022-11-04T10:02:46.020Z,13.10
2022-11-04T10:03:47.069Z,13.10
2022-11-04T10:04:46.239Z,13.09
2022-11-04T10:05:46.138Z,13.07
2022-11-04T10:06:46.038Z,13.04
2022-11-04T10:07:46.242Z,13.00
2022-11-04T10:08:46.005Z,12.96
2022-11-04T10:09:46.888Z,12.91
2022-11-04T10:10:46.000Z,12.86
2022-11-04T10:11:47.011Z,12.83
2022-11-04T10:12:46.043Z,12.79
2022-11-04T10:13:45.990Z,12.77
2022-11-04T10:14:52.221Z,12.76
2022-11-04T10:15:46.155Z,12.75
2022-11-04T10:16:46.071Z,12.74
2022-11-04T10:17:45.869Z,12.74
2022-11-04T10:18:46.897Z,12.73
2022-11-04T10:19:46.909Z,12.72
2022-11-04T10:20:47.430Z,12.72
2022-11-04T10:21:45.805Z,12.71
2022-11-04T10:22:45.962Z,12.70
2022-11-04T10:23:45.872Z,12.69
2022-11-04T10:24:46.683Z,12.68
2022-11-04T10:25:46.230Z,12.68
2022-11-04T10:26:45.800Z,12.67
2022-11-04T10:27:47.731Z,12.66
2022-11-04T10:28:45.804Z,12.66
2022-11-04T10:29:46.779Z,12.65
2022-11-04T10:30:46.686Z,12.65
2022-11-04T10:31:45.954Z,12.66
2022-11-04T10:32:46.846Z,12.68
2022-11-04T10:33:45.916Z,12.70
2022-11-04T10:37:03.087Z,13.89
2022-11-04T10:37:42.020Z,13.44
2022-11-04T10:38:42.221Z,13.15
2022-11-04T10:39:42.035Z,12.99
2022-11-04T10:40:43.579Z,12.91
2022-11-04T10:41:42.915Z,12.86
2022-11-04T18:42:26.954Z,9.73
2022-11-04T18:43:27.819Z,9.28
2022-11-04T18:44:26.801Z,9.00
2022-11-04T18:45:27.312Z,8.87
2022-11-04T18:46:27.107Z,8.85
2022-11-04T18:47:27.950Z,8.88
2022-11-04T18:48:26.433Z,8.96
2022-11-04T18:49:26.629Z,9.05
2022-11-04T18:50:26.936Z,9.15
2022-11-04T18:51:26.377Z,9.26
2022-11-04T18:52:27.714Z,9.37
2022-11-04T18:53:27.276Z,9.47
2022-11-04T18:54:26.822Z,9.56
2022-11-04T18:55:27.381Z,9.64
2022-11-04T18:56:26.455Z,9.71
2022-11-04T18:57:29.160Z,9.77
2022-11-04T18:58:34.961Z,9.82
2022-11-04T18:59:28.715Z,9.87
2022-11-04T19:00:28.206Z,9.91
2022-11-04T19:01:28.728Z,9.95
2022-11-04T19:02:30.276Z,9.98
2022-11-04T19:03:26.702Z,10.01
2022-11-04T19:04:26.929Z,10.03
2022-11-04T19:05:28.092Z,10.06
2022-11-04T19:06:26.820Z,10.08
2022-11-04T19:07:29.352Z,10.10
2022-11-04T19:08:27.010Z,10.12
2022-11-04T19:10:28.284Z,10.15
2022-11-04T19:11:27.238Z,10.17
2022-11-04T19:12:38.492Z,10.19
2022-11-04T19:13:26.158Z,10.20
2022-11-04T19:14:26.868Z,10.22
2022-11-04T19:15:26.088Z,10.23
2022-11-04T19:16:26.773Z,10.24
2022-11-04T19:17:27.715Z,10.25
2022-11-04T19:18:33.782Z,10.26
2022-11-04T19:19:26.242Z,10.28
2022-11-04T19:20:27.710Z,10.29
2022-11-04T19:21:27.211Z,10.30
2022-11-04T19:22:27.055Z,10.30
2022-11-04T19:23:27.672Z,10.31
